createdAt,value
2019-06-20T14:51:48.539Z,-1.00
2019-06-20T14:54:57.290Z,-1.00
2019-06-20T14:57:38.743Z,-1.00
2019-06-20T15:24:14.702Z,-1.00
2019-06-20T15:26:49.003Z,-1.00
2019-06-20T15:30:59.085Z,-1.00
2019-06-20T15:33:31.171Z,-1.00
2019-06-20T15:40:45.308Z,-1.00
2019-06-20T15:48:09.591Z,-1.00
2019-06-20T15:54:25.408Z,-1.00
2019-06-20T15:56:57.460Z,-1.00
2019-06-20T15:59:31.308Z,-1.00
2019-06-20T20:12:52.131Z,58.53
2019-06-20T20:15:24.756Z,55.91
2019-06-20T20:17:57.045Z,58.29
2019-06-20T20:20:29.202Z,60.70
2019-06-20T20:23:03.157Z,63.37
2019-06-20T20:25:37.012Z,58.66
2019-06-20T20:28:10.502Z,55.84
2019-06-20T20:30:43.264Z,58.39
2019-06-20T20:33:15.656Z,60.50
2019-06-20T20:35:49.702Z,62.44
2019-06-20T20:38:25.617Z,61.11
2019-06-20T20:40:58.478Z,53.62
2019-06-20T20:43:33.253Z,52.97
2019-06-20T20:46:09.463Z,54.90
2019-06-20T20:48:43.051Z,57.43
2019-06-20T20:51:22.473Z,59.61
2019-06-20T20:53:55.510Z,61.32
2019-06-20T20:56:28.292Z,62.85
2019-06-20T20:59:00.910Z,58.59
2019-06-20T21:01:35.625Z,55.32
2019-06-20T21:04:08.196Z,57.71
2019-06-20T21:06:40.488Z,59.64
2019-06-20T21:09:12.527Z,61.74
2019-06-20T21:11:44.560Z,63.89
2019-06-20T21:14:16.600Z,59.05
2019-06-20T21:16:51.514Z,56.06
2019-06-20T21:19:23.621Z,58.50
2019-06-20T21:21:55.649Z,60.82
2019-06-20T21:24:27.621Z,62.38
2019-06-20T21:26:59.499Z,63.87
2019-06-20T21:29:31.554Z,59.59
2019-06-20T21:32:03.466Z,56.05
2019-06-20T21:34:35.421Z,58.65
2019-06-20T21:37:07.326Z,60.94
2019-06-20T21:39:39.362Z,63.27
2019-06-20T21:42:11.174Z,56.81
2019-06-20T21:44:43.207Z,54.82
2019-06-20T21:47:15.171Z,57.25
2019-06-20T21:49:47.072Z,59.64
2019-06-20T21:52:19.208Z,61.67
2019-06-20T21:54:51.025Z,63.08
2019-06-20T21:57:22.943Z,59.18
2019-06-20T21:59:54.850Z,55.80
2019-06-20T22:02:26.872Z,58.18
2019-06-20T22:05:15.578Z,60.77
2019-06-20T22:07:47.941Z,62.58
2019-06-20T22:10:20.022Z,59.10
2019-06-20T22:12:52.054Z,56.13
2019-06-20T22:15:24.102Z,58.16
2019-06-20T22:17:56.210Z,60.77
2019-06-20T22:20:29.302Z,62.69
2019-06-20T22:23:01.262Z,58.79
2019-06-20T22:25:33.224Z,55.72
2019-06-20T22:28:05.745Z,58.14
2019-06-20T22:30:54.368Z,60.53
2019-06-20T22:33:26.361Z,62.40
2019-06-20T22:35:58.407Z,59.40
2019-06-20T22:38:30.384Z,56.12
2019-06-20T22:41:02.482Z,57.79
2019-06-20T22:43:34.526Z,61.03
2019-06-20T22:46:06.490Z,62.93
2019-06-20T22:48:38.462Z,59.16
2019-06-20T22:51:13.683Z,55.94
2019-06-20T22:53:44.210Z,58.53
2019-06-20T22:56:16.212Z,60.74
2019-06-20T22:58:48.138Z,62.56
2019-06-20T23:01:26.565Z,59.11
2019-06-20T23:04:03.585Z,55.94
2019-06-20T23:06:35.660Z,58.20
2019-06-20T23:09:08.765Z,60.47
2019-06-20T23:11:40.821Z,62.02
2019-06-20T23:14:12.821Z,63.51
2019-06-20T23:17:04.582Z,58.78
2019-06-20T23:19:38.046Z,55.80
2019-06-20T23:22:10.604Z,57.90
2019-06-20T23:24:42.454Z,60.56
2019-06-20T23:27:14.404Z,62.81
2019-06-20T23:29:46.354Z,59.70
2019-06-20T23:32:18.420Z,56.22
2019-06-20T23:34:50.378Z,58.24
2019-06-20T23:37:23.485Z,60.74
2019-06-20T23:39:55.323Z,62.49
2019-06-20T23:42:28.281Z,59.39
2019-06-20T23:45:00.287Z,56.38
2019-06-20T23:47:32.277Z,58.39
2019-06-20T23:50:05.462Z,60.50
2019-06-20T23:52:40.003Z,62.48
2019-06-20T23:55:12.238Z,59.14
2019-06-20T23:57:44.072Z,56.03
